createdAt,value
2017-05-11T00:00:27.750Z,23.61
2017-05-11T00:01:27.779Z,23.58
2017-05-11T00:02:28.124Z,23.58
2017-05-11T00:03:28.096Z,23.57
2017-05-11T00:04:28.181Z,23.58
2017-05-11T00:05:27.577Z,23.54
2017-05-11T00:06:27.919Z,23.57
2017-05-11T00:07:28.268Z,23.57
2017-05-11T00:08:28.177Z,23.54
2017-05-11T00:09:28.309Z,23.55
2017-05-11T00:10:28.345Z,23.51
2017-05-11T00:11:28.087Z,23.51
2017-05-11T00:12:28.399Z,23.51
2017-05-11T00:13:28.364Z,23.54
2017-05-11T00:14:28.456Z,23.53
2017-05-11T00:15:28.482Z,23.54
2017-05-11T00:16:28.511Z,23.51
2017-05-11T00:17:28.224Z,23.51
2017-05-11T00:18:28.820Z,23.57
2017-05-11T00:19:28.280Z,23.51
2017-05-11T00:20:28.624Z,23.5
2017-05-11T00:21:28.651Z,23.46
2017-05-11T00:22:28.671Z,23.42
2017-05-11T00:23:28.957Z,23.46
2017-05-11T00:24:28.730Z,23.46
2017-05-11T00:25:28.453Z,23.42
2017-05-11T00:26:28.786Z,23.51
2017-05-11T00:27:28.816Z,23.47
2017-05-11T00:28:29.039Z,23.43
2017-05-11T00:29:28.878Z,23.46
2017-05-11T00:30:28.913Z,23.48
2017-05-11T00:31:28.931Z,23.48
2017-05-11T00:32:28.961Z,23.46
2017-05-11T00:33:29.243Z,23.4
2017-05-11T00:34:29.012Z,23.48
2017-05-11T00:35:28.729Z,23.43
2017-05-11T00:36:29.070Z,23.47
2017-05-11T00:37:29.093Z,23.47
2017-05-11T00:38:29.412Z,23.4
2017-05-11T00:39:29.163Z,23.47
2017-05-11T00:40:29.181Z,23.39
2017-05-11T00:41:29.207Z,23.39
2017-05-11T00:42:29.226Z,23.39
2017-05-11T00:43:29.516Z,23.39
2017-05-11T00:44:29.289Z,23.46
2017-05-11T00:45:29.317Z,23.38
2017-05-11T00:46:29.037Z,23.36
2017-05-11T00:47:29.383Z,23.38
2017-05-11T00:48:29.651Z,23.36
2017-05-11T00:49:29.428Z,23.38
2017-05-11T00:50:29.164Z,23.36
2017-05-11T00:51:29.485Z,23.4
2017-05-11T00:52:29.515Z,23.39
2017-05-11T00:53:29.794Z,23.38
2017-05-11T00:54:29.568Z,23.39
2017-05-11T00:55:29.286Z,23.36
2017-05-11T00:56:29.633Z,23.38
2017-05-11T00:57:29.334Z,23.35
2017-05-11T00:58:29.879Z,23.39
2017-05-11T00:59:29.708Z,23.38
2017-05-11T01:00:29.730Z,23.38
2017-05-11T01:01:29.762Z,23.4
2017-05-11T01:02:29.790Z,23.35
2017-05-11T01:03:30.067Z,23.35
2017-05-11T01:04:29.843Z,23.43
2017-05-11T01:05:29.869Z,23.42
2017-05-11T01:06:29.902Z,23.28
2017-05-11T01:07:29.931Z,23.33
2017-05-11T01:08:29.640Z,23.38
2017-05-11T01:09:29.988Z,23.31
2017-05-11T01:10:29.696Z,23.31
2017-05-11T01:11:30.039Z,23.32
2017-05-11T01:12:30.067Z,23.32
2017-05-11T01:13:30.096Z,23.33
2017-05-11T01:14:30.128Z,23.35
2017-05-11T01:15:30.148Z,23.36
2017-05-11T01:16:30.173Z,23.33
2017-05-11T01:17:30.206Z,23.32
2017-05-11T01:18:30.229Z,23.28
2017-05-11T01:19:30.268Z,23.35
2017-05-11T01:20:30.292Z,23.32
2017-05-11T01:21:30.320Z,23.33
2017-05-11T01:22:30.347Z,23.33
2017-05-11T01:23:30.063Z,23.38
2017-05-11T01:24:30.404Z,23.35
2017-05-11T01:25:30.428Z,23.32
2017-05-11T01:26:30.449Z,23.32
2017-05-11T01:27:30.170Z,23.38
2017-05-11T01:28:30.503Z,23.31
2017-05-11T01:29:30.536Z,23.38
2017-05-11T01:30:30.249Z,23.23
2017-05-11T01:31:30.594Z,23.31
2017-05-11T01:32:30.622Z,23.32
2017-05-11T01:33:30.655Z,23.25
2017-05-11T01:34:30.675Z,23.2
2017-05-11T01:35:30.708Z,23.28
2017-05-11T01:36:30.425Z,23.31
2017-05-11T01:37:30.758Z,23.25
2017-05-11T01:38:30.778Z,23.23
2017-05-11T01:39:30.816Z,23.36
2017-05-11T01:40:30.840Z,23.23
2017-05-11T01:41:30.562Z,23.22
2017-05-11T01:42:30.898Z,23.25
2017-05-11T01:43:30.919Z,23.22
2017-05-11T01:44:30.960Z,23.22
2017-05-11T01:45:30.989Z,23.25
2017-05-11T01:46:30.697Z,23.23
2017-05-11T01:47:31.042Z,23.25
2017-05-11T01:48:31.063Z,23.22
2017-05-11T01:49:31.089Z,23.28
2017-05-11T01:50:31.121Z,23.25
2017-05-11T01:51:30.833Z,23.27
2017-05-11T01:52:30.874Z,23.22
2017-05-11T01:53:30.898Z,23.23
2017-05-11T01:54:31.231Z,23.25
2017-05-11T01:55:30.956Z,23.25
2017-05-11T01:56:31.289Z,23.23
2017-05-11T01:57:31.317Z,23.28
2017-05-11T01:58:31.342Z,23.28
2017-05-11T01:59:31.370Z,23.2
2017-05-11T02:00:31.401Z,23.22
2017-05-11T02:01:31.425Z,23.22
2017-05-11T02:02:31.454Z,23.25
2017-05-11T02:03:31.170Z,23.22
2017-05-11T02:04:31.519Z,23.23
2017-05-11T02:05:31.539Z,23.2
2017-05-11T02:06:31.257Z,23.25
2017-05-11T02:07:31.593Z,23.23
2017-05-11T02:08:31.630Z,23.27
2017-05-11T02:09:31.647Z,23.25
2017-05-11T02:10:31.676Z,23.17
2017-05-11T02:11:31.397Z,23.23
2017-05-11T02:12:31.733Z,23.25
2017-05-11T02:13:31.444Z,23.22
2017-05-11T02:14:31.791Z,23.2
2017-05-11T02:15:31.807Z,23.25
2017-05-11T02:16:31.849Z,23.22
2017-05-11T02:17:31.876Z,23.25
2017-05-11T02:18:31.901Z,23.22
2017-05-11T02:19:31.927Z,23.19
2017-05-11T02:20:31.636Z,23.25
2017-05-11T02:21:31.668Z,23.22
2017-05-11T02:22:31.742Z,23.23
2017-05-11T02:23:32.037Z,23.16
2017-05-11T02:24:31.692Z,23.19
2017-05-11T02:25:32.092Z,23.23
2017-05-11T02:26:31.804Z,23.2
2017-05-11T02:27:32.151Z,23.22
2017-05-11T02:28:31.861Z,23.25
2017-05-11T02:29:32.403Z,23.17
2017-05-11T02:30:31.919Z,23.23
2017-05-11T02:31:31.951Z,23.17
2017-05-11T02:32:32.289Z,23.13
2017-05-11T02:33:32.302Z,23.22
2017-05-11T02:34:32.282Z,23.16
2017-05-11T02:35:32.367Z,23.13
2017-05-11T02:36:32.084Z,23.22
2017-05-11T02:37:31.801Z,23.16
2017-05-11T02:38:32.141Z,23.19
2017-05-11T02:39:32.730Z,23.16
2017-05-11T02:40:32.195Z,23.2
2017-05-11T02:41:32.225Z,23.13
2017-05-11T02:42:32.260Z,23.15
2017-05-11T02:43:32.282Z,23.2
2017-05-11T02:44:32.504Z,23.16
2017-05-11T02:45:32.026Z,23.16
2017-05-11T02:46:32.667Z,23.22
2017-05-11T02:47:32.702Z,23.17
2017-05-11T02:48:32.725Z,23.23
2017-05-11T02:49:32.695Z,23.15
2017-05-11T02:50:32.783Z,23.17
2017-05-11T02:51:32.501Z,23.13
2017-05-11T02:52:32.842Z,23.19
2017-05-11T02:53:32.554Z,23.2
2017-05-11T02:54:32.835Z,23.19
2017-05-11T02:55:32.611Z,23.23
2017-05-11T02:56:32.639Z,23.12
2017-05-11T02:57:32.668Z,23.22
2017-05-11T02:58:33.005Z,23.16
2017-05-11T02:59:32.975Z,23.23
2017-05-11T03:00:32.751Z,23.13
2017-05-11T03:01:33.088Z,23.16
2017-05-11T03:02:33.121Z,23.16
2017-05-11T03:03:33.137Z,23.13
2017-05-11T03:04:33.110Z,23.15
2017-05-11T03:05:33.203Z,23.19
2017-05-11T03:06:33.229Z,23.15
2017-05-11T03:07:33.269Z,23.16
2017-05-11T03:08:33.276Z,23.17
2017-05-11T03:09:33.565Z,23.07
2017-05-11T03:10:33.346Z,23.13
2017-05-11T03:11:33.368Z,23.17
2017-05-11T03:12:33.080Z,23.19
2017-05-11T03:13:33.427Z,23.19
2017-05-11T03:14:33.701Z,23.19
2017-05-11T03:15:33.166Z,23.22
2017-05-11T03:16:33.500Z,23.17
2017-05-11T03:17:33.530Z,23.16
2017-05-11T03:18:33.556Z,23.15
2017-05-11T03:19:33.795Z,23.15
2017-05-11T03:20:33.308Z,23.2
2017-05-11T03:21:33.643Z,23.19
2017-05-11T03:22:33.365Z,23.2
2017-05-11T03:23:33.699Z,23.17
2017-05-11T03:24:33.614Z,23.2
2017-05-11T03:25:33.767Z,23.17
2017-05-11T03:26:33.780Z,23.15
2017-05-11T03:27:33.183Z,23.22
2017-05-11T03:28:33.533Z,23.16
2017-05-11T03:29:33.805Z,23.07
2017-05-11T03:30:33.575Z,23.19
2017-05-11T03:31:33.301Z,23.2
2017-05-11T03:32:33.990Z,23.17
2017-05-11T03:33:33.982Z,23.17
2017-05-11T03:34:33.886Z,23.13
2017-05-11T03:35:34.031Z,23.19
2017-05-11T03:36:34.052Z,23.19
2017-05-11T03:37:34.084Z,23.15
2017-05-11T03:38:33.802Z,23.13
2017-05-11T03:39:34.400Z,23.19
2017-05-11T03:40:34.170Z,23.22
2017-05-11T03:41:33.880Z,23.22
2017-05-11T03:42:33.913Z,23.09
2017-05-11T03:43:33.949Z,23.12
2017-05-11T03:44:34.529Z,23.13
2017-05-11T03:45:33.992Z,23.09
2017-05-11T03:46:34.332Z,23.16
2017-05-11T03:47:34.368Z,23.17
2017-05-11T03:48:34.390Z,23.17
2017-05-11T03:49:34.670Z,23.19
2017-05-11T03:50:34.135Z,23.2
2017-05-11T03:51:34.507Z,23.17
2017-05-11T03:52:34.492Z,23.07
2017-05-11T03:53:34.528Z,23.12
2017-05-11T03:54:34.810Z,23.17
2017-05-11T03:55:34.583Z,23.1
2017-05-11T03:56:34.610Z,23.16
2017-05-11T03:57:34.637Z,23.12
2017-05-11T03:58:34.356Z,23.19
2017-05-11T03:59:34.941Z,23.1
2017-05-11T04:00:34.722Z,23.17
2017-05-11T04:01:34.750Z,23.07
2017-05-11T04:02:34.468Z,23.1
2017-05-11T04:03:34.805Z,23.17
2017-05-11T04:04:34.721Z,23.16
2017-05-11T04:05:34.549Z,23.12
2017-05-11T04:06:34.887Z,23.15
2017-05-11T04:07:34.919Z,23.12
2017-05-11T04:08:34.979Z,23.16
2017-05-11T04:09:34.912Z,23.07
2017-05-11T04:10:35.032Z,23.19
2017-05-11T04:11:34.714Z,23.17
2017-05-11T04:12:34.744Z,23.12
2017-05-11T04:13:35.081Z,23.17
2017-05-11T04:14:35.364Z,23.13
2017-05-11T04:15:34.826Z,23.22
2017-05-11T04:16:34.852Z,23.16
2017-05-11T04:17:35.191Z,23.16
2017-05-11T04:18:35.213Z,23.19
2017-05-11T04:19:34.938Z,23.16
2017-05-11T04:20:34.962Z,23.19
2017-05-11T04:21:35.299Z,23.19
2017-05-11T04:22:35.332Z,23.2
2017-05-11T04:23:35.365Z,23.15
2017-05-11T04:24:35.378Z,23.09
2017-05-11T04:25:35.414Z,23.16
2017-05-11T04:26:35.171Z,23.23
2017-05-11T04:27:35.475Z,23.22
2017-05-11T04:28:35.495Z,23.16
2017-05-11T04:29:35.529Z,23.2
2017-05-11T04:30:35.550Z,23.2
2017-05-11T04:31:35.581Z,23.19
2017-05-11T04:32:35.611Z,23.16
2017-05-11T04:33:35.636Z,23.16
2017-05-11T04:34:35.661Z,23.19
2017-05-11T04:35:35.379Z,23.22
2017-05-11T04:36:35.720Z,23.17
2017-05-11T04:37:35.432Z,23.23
2017-05-11T04:38:35.455Z,23.1
2017-05-11T04:39:35.172Z,23.19
2017-05-11T04:40:35.201Z,23.17
2017-05-11T04:41:35.231Z,23.22
2017-05-11T04:42:35.892Z,23.17
2017-05-11T04:43:35.918Z,23.2
2017-05-11T04:44:35.629Z,23.15
2017-05-11T04:45:35.657Z,23.17
2017-05-11T04:46:35.682Z,23.19
2017-05-11T04:47:35.707Z,23.19
2017-05-11T04:48:36.052Z,23.1
2017-05-11T04:49:36.083Z,23.16
2017-05-11T04:50:36.102Z,23.13
2017-05-11T04:51:35.818Z,23.2
2017-05-11T04:52:36.159Z,23.2
2017-05-11T04:53:36.188Z,23.17
2017-05-11T04:54:35.593Z,23.12
2017-05-11T04:55:36.494Z,23.23
2017-05-11T04:56:36.270Z,23.15
2017-05-11T04:57:36.295Z,23.15
2017-05-11T04:58:36.332Z,23.17
2017-05-11T04:59:36.392Z,23.16
2017-05-11T05:00:36.309Z,23.17
2017-05-11T05:01:36.091Z,23.23
2017-05-11T05:02:36.123Z,23.16
2017-05-11T05:03:36.151Z,23.2
2017-05-11T05:04:36.492Z,23.22
2017-05-11T05:05:36.818Z,23.23
2017-05-11T05:06:36.235Z,23.23
2017-05-11T05:07:36.258Z,23.25
2017-05-11T05:08:36.291Z,23.27
2017-05-11T05:09:36.633Z,23.28
2017-05-11T05:10:36.593Z,23.28
2017-05-11T05:11:36.679Z,23.25
2017-05-11T05:12:36.407Z,23.2
2017-05-11T05:13:36.743Z,23.22
2017-05-11T05:14:36.764Z,23.2
2017-05-11T05:15:36.992Z,23.27
2017-05-11T05:16:36.548Z,23.23
2017-05-11T05:17:36.539Z,23.22
2017-05-11T05:18:36.875Z,23.23
2017-05-11T05:19:36.915Z,23.2
2017-05-11T05:20:36.825Z,23.16
2017-05-11T05:21:36.646Z,23.25
2017-05-11T05:22:36.670Z,23.22
2017-05-11T05:23:36.696Z,23.16
2017-05-11T05:24:37.040Z,23.2
2017-05-11T05:25:37.368Z,23.2
2017-05-11T05:26:36.786Z,23.23
2017-05-11T05:27:37.121Z,23.16
2017-05-11T05:28:36.839Z,23.15
2017-05-11T05:29:36.865Z,23.25
2017-05-11T05:30:37.092Z,23.16
2017-05-11T05:31:37.237Z,23.19
2017-05-11T05:32:37.271Z,23.16
2017-05-11T05:33:36.978Z,23.15
2017-05-11T05:34:37.320Z,23.22
2017-05-11T05:35:36.920Z,23.2
2017-05-11T05:36:37.065Z,23.27
2017-05-11T05:37:37.093Z,23.16
2017-05-11T05:38:37.431Z,23.15
2017-05-11T05:39:37.460Z,23.12
2017-05-11T05:40:37.680Z,23.19
2017-05-11T05:41:37.518Z,23.19
2017-05-11T05:42:36.917Z,23.17
2017-05-11T05:43:37.575Z,23.2
2017-05-11T05:44:36.972Z,23.27
2017-05-11T05:45:37.556Z,23.16
2017-05-11T05:46:37.346Z,23.2
2017-05-11T05:47:37.687Z,23.2
2017-05-11T05:48:37.394Z,23.19
2017-05-11T05:49:37.735Z,23.23
2017-05-11T05:50:38.015Z,23.22
2017-05-11T05:51:37.792Z,23.19
2017-05-11T05:52:37.823Z,23.23
2017-05-11T05:53:37.846Z,23.28
2017-05-11T05:54:37.875Z,23.22
2017-05-11T05:55:38.150Z,23.23
2017-05-11T05:56:37.929Z,23.28
2017-05-11T05:57:37.645Z,23.2
2017-05-11T05:58:37.986Z,23.27
2017-05-11T05:59:37.693Z,23.25
2017-05-11T06:00:38.236Z,23.23
2017-05-11T06:01:38.077Z,23.23
2017-05-11T06:02:38.098Z,23.25
2017-05-11T06:03:38.130Z,23.25
2017-05-11T06:04:38.150Z,23.23
2017-05-11T06:05:38.121Z,23.31
2017-05-11T06:06:38.835Z,23.28
2017-05-11T06:07:38.243Z,23.23
2017-05-11T06:08:38.168Z,23.28
2017-05-11T06:09:38.288Z,23.25
2017-05-11T06:10:38.564Z,23.27
2017-05-11T06:11:38.345Z,23.27
2017-05-11T06:12:38.374Z,23.39
2017-05-11T06:13:38.130Z,23.35
2017-05-11T06:14:38.430Z,23.28
2017-05-11T06:15:38.663Z,23.36
2017-05-11T06:16:38.176Z,23.32
2017-05-11T06:17:38.513Z,23.28
2017-05-11T06:18:38.538Z,23.38
2017-05-11T06:19:38.563Z,23.35
2017-05-11T06:20:38.847Z,23.33
2017-05-11T06:21:38.859Z,23.27
2017-05-11T06:22:38.690Z,23.31
2017-05-11T06:23:38.366Z,23.28
2017-05-11T06:24:38.402Z,23.35
2017-05-11T06:25:39.575Z,23.32
2017-05-11T06:26:38.764Z,23.36
2017-05-11T06:27:39.018Z,23.33
2017-05-11T06:28:39.041Z,23.35
2017-05-11T06:29:39.337Z,23.35
2017-05-11T06:30:39.820Z,23.36
2017-05-11T06:31:39.137Z,23.36
2017-05-11T06:32:53.978Z,23.38
2017-05-11T06:33:39.246Z,23.39
2017-05-11T06:34:39.248Z,23.38
2017-05-11T06:35:54.066Z,23.46
2017-05-11T06:36:39.263Z,23.48
2017-05-11T06:37:39.314Z,23.4
2017-05-11T06:38:39.317Z,23.42
2017-05-11T06:39:38.846Z,23.39
2017-05-11T06:40:39.399Z,23.42
2017-05-11T06:41:39.455Z,23.4
2017-05-11T06:42:38.900Z,23.39
2017-05-11T06:43:39.240Z,23.42
2017-05-11T06:44:39.261Z,23.4
2017-05-11T06:45:39.019Z,23.42
2017-05-11T06:46:39.567Z,23.42
2017-05-11T06:47:39.347Z,23.42
2017-05-11T06:48:39.373Z,23.51
2017-05-11T06:49:39.085Z,23.5
2017-05-11T06:50:39.430Z,23.47
2017-05-11T06:51:39.733Z,23.47
2017-05-11T06:52:39.488Z,23.48
2017-05-11T06:53:39.200Z,23.46
2017-05-11T06:54:39.746Z,23.47
2017-05-11T06:55:39.574Z,23.46
2017-05-11T06:56:39.534Z,23.51
2017-05-11T06:57:39.624Z,23.58
2017-05-11T06:58:39.653Z,23.53
2017-05-11T06:59:39.685Z,23.51
2017-05-11T07:00:39.398Z,23.54
2017-05-11T07:01:39.999Z,23.55
2017-05-11T07:02:39.760Z,23.53
2017-05-11T07:03:39.785Z,23.53
2017-05-11T07:04:39.521Z,23.54
2017-05-11T07:05:39.537Z,23.54
2017-05-11T07:06:40.130Z,23.55
2017-05-11T07:07:39.898Z,23.57
2017-05-11T07:08:39.932Z,23.6
2017-05-11T07:09:39.965Z,23.63
2017-05-11T07:10:39.990Z,23.65
2017-05-11T07:11:39.902Z,23.6
2017-05-11T07:12:39.720Z,23.61
2017-05-11T07:13:40.072Z,23.63
2017-05-11T07:14:40.114Z,23.55
2017-05-11T07:15:39.818Z,23.6
2017-05-11T07:16:40.038Z,23.63
2017-05-11T07:17:40.186Z,23.6
2017-05-11T07:18:39.587Z,23.69
2017-05-11T07:19:39.927Z,23.55
2017-05-11T07:20:40.275Z,23.75
2017-05-11T07:21:40.551Z,23.69
2017-05-11T07:22:40.007Z,23.65
2017-05-11T07:23:40.353Z,23.73
2017-05-11T07:24:40.113Z,23.73
2017-05-11T07:25:40.100Z,23.7
2017-05-11T07:26:40.685Z,23.7
2017-05-11T07:27:40.151Z,23.73
2017-05-11T07:28:40.492Z,23.73
2017-05-11T07:29:40.522Z,23.72
2017-05-11T07:30:40.549Z,23.72
2017-05-11T07:31:40.830Z,23.8
2017-05-11T07:32:40.607Z,23.76
2017-05-11T07:33:40.631Z,23.8
2017-05-11T07:34:40.347Z,23.73
2017-05-11T07:35:40.373Z,23.69
2017-05-11T07:36:40.925Z,23.78
2017-05-11T07:37:40.754Z,23.76
2017-05-11T07:38:40.471Z,23.76
2017-05-11T07:39:40.799Z,23.72
2017-05-11T07:40:40.516Z,23.73
2017-05-11T07:41:41.114Z,23.8
2017-05-11T07:42:40.886Z,23.7
2017-05-11T07:43:40.915Z,23.79
2017-05-11T07:44:40.944Z,23.87
2017-05-11T07:45:40.972Z,23.8
2017-05-11T07:46:40.945Z,23.79
2017-05-11T07:47:40.715Z,23.8
2017-05-11T07:48:41.055Z,23.87
2017-05-11T07:49:40.772Z,23.9
2017-05-11T07:50:41.116Z,23.83
2017-05-11T07:51:41.397Z,23.8
2017-05-11T07:52:41.166Z,23.83
2017-05-11T07:53:41.194Z,23.85
2017-05-11T07:54:41.223Z,23.85
2017-05-11T07:55:41.256Z,23.9
2017-05-11T07:56:40.849Z,23.87
2017-05-11T07:57:41.318Z,23.93
2017-05-11T07:58:41.339Z,23.88
2017-05-11T07:59:41.368Z,23.88
2017-05-11T08:00:41.392Z,23.87
2017-05-11T08:01:41.360Z,23.91
2017-05-11T08:02:41.144Z,23.97
2017-05-11T08:03:41.482Z,23.88
2017-05-11T08:04:41.512Z,23.94
2017-05-11T08:05:40.912Z,23.97
2017-05-11T08:06:41.197Z,23.95
2017-05-11T08:07:41.281Z,23.94
2017-05-11T08:08:41.309Z,23.97
2017-05-11T08:09:41.647Z,23.93
2017-05-11T08:10:41.677Z,23.85
2017-05-11T08:11:41.953Z,23.87
2017-05-11T08:12:41.417Z,23.84
2017-05-11T08:13:41.762Z,23.97
2017-05-11T08:14:41.491Z,23.87
2017-05-11T08:15:41.504Z,23.91
2017-05-11T08:16:42.101Z,23.91
2017-05-11T08:17:41.880Z,23.97
2017-05-11T08:18:41.905Z,23.93
2017-05-11T08:19:41.618Z,23.93
2017-05-11T08:20:41.643Z,23.95
2017-05-11T08:21:42.236Z,23.95
2017-05-11T08:22:42.021Z,24
2017-05-11T08:23:42.042Z,24.05
2017-05-11T08:24:42.075Z,24
2017-05-11T08:25:42.091Z,24.02
2017-05-11T08:26:42.380Z,24.05
2017-05-11T08:27:41.541Z,24.09
2017-05-11T08:28:42.182Z,24.06
2017-05-11T08:29:41.902Z,24.15
2017-05-11T08:30:41.924Z,24.1
2017-05-11T08:31:42.213Z,24.18
2017-05-11T08:32:41.988Z,24.09
2017-05-11T08:33:42.324Z,24.13
2017-05-11T08:34:42.351Z,24.2
2017-05-11T08:35:42.383Z,24.1
2017-05-11T08:36:42.348Z,24.13
2017-05-11T08:37:42.440Z,24.15
2017-05-11T08:38:42.162Z,24.2
2017-05-11T08:39:42.498Z,24.16
2017-05-11T08:40:42.220Z,24.24
2017-05-11T08:41:42.801Z,24.18
2017-05-11T08:42:42.589Z,24.21
2017-05-11T08:43:42.612Z,24.22
2017-05-11T08:44:42.634Z,24.16
2017-05-11T08:45:42.670Z,24.21
2017-05-11T08:46:42.898Z,24.16
2017-05-11T08:47:42.420Z,24.2
2017-05-11T08:48:42.769Z,24.13
2017-05-11T08:49:42.772Z,24.21
2017-05-11T08:50:42.822Z,24.24
2017-05-11T08:51:43.090Z,24.18
2017-05-11T08:52:42.864Z,24.2
2017-05-11T08:53:42.271Z,24.24
2017-05-11T08:54:42.637Z,24.2
2017-05-11T08:55:42.953Z,24.2
2017-05-11T08:56:43.234Z,24.2
2017-05-11T08:57:42.699Z,24.22
2017-05-11T08:58:42.727Z,24.24
2017-05-11T08:59:42.757Z,24.25
2017-05-11T09:00:43.096Z,24.24
2017-05-11T09:01:43.333Z,24.2
2017-05-11T09:02:43.151Z,24.22
2017-05-11T09:03:43.180Z,24.24
2017-05-11T09:04:43.202Z,24.31
2017-05-11T09:05:42.934Z,24.28
2017-05-11T09:06:43.573Z,24.27
2017-05-11T09:07:42.999Z,24.4
2017-05-11T09:08:43.009Z,24.32
2017-05-11T09:09:43.348Z,24.34
2017-05-11T09:10:43.374Z,24.39
2017-05-11T09:11:43.612Z,24.4
2017-05-11T09:12:43.122Z,24.37
2017-05-11T09:13:43.463Z,24.42
2017-05-11T09:14:43.497Z,24.35
2017-05-11T09:15:43.221Z,24.45
2017-05-11T09:16:43.441Z,24.4
2017-05-11T09:17:43.583Z,24.45
2017-05-11T09:18:43.607Z,24.53
2017-05-11T09:19:43.639Z,24.45
2017-05-11T09:20:43.672Z,24.55
2017-05-11T09:21:43.581Z,24.53
2017-05-11T09:22:43.099Z,24.55
2017-05-11T09:23:43.434Z,24.52
2017-05-11T09:24:43.780Z,24.55
2017-05-11T09:25:43.812Z,24.53
2017-05-11T09:26:44.039Z,24.47
2017-05-11T09:27:43.867Z,24.6
2017-05-11T09:28:43.579Z,24.55
2017-05-11T09:29:43.924Z,24.57
2017-05-11T09:30:43.641Z,24.55
2017-05-11T09:31:44.192Z,24.46
2017-05-11T09:32:44.005Z,24.6
2017-05-11T09:33:43.722Z,24.61
2017-05-11T09:34:43.756Z,24.55
2017-05-11T09:35:44.098Z,24.55
2017-05-11T09:36:43.501Z,24.65
2017-05-11T09:37:43.838Z,24.62
2017-05-11T09:38:43.875Z,24.64
2017-05-11T09:39:44.210Z,24.69
2017-05-11T09:40:44.245Z,24.69
2017-05-11T09:41:43.957Z,24.68
2017-05-11T09:42:44.294Z,24.68
2017-05-11T09:43:44.330Z,24.62
2017-05-11T09:44:44.046Z,24.76
2017-05-11T09:45:44.383Z,24.73
2017-05-11T09:46:44.095Z,24.64
2017-05-11T09:47:44.458Z,24.65
2017-05-11T09:48:44.158Z,24.81
2017-05-11T09:49:59.084Z,24.76
2017-05-11T09:50:44.529Z,24.78
2017-05-11T09:51:44.552Z,24.78
2017-05-11T09:52:44.593Z,24.76
2017-05-11T09:53:44.622Z,24.83
2017-05-11T09:54:44.331Z,24.84
2017-05-11T09:55:44.360Z,24.83
2017-05-11T09:56:44.389Z,24.84
2017-05-11T09:57:44.422Z,24.8
2017-05-11T09:58:44.773Z,24.84
2017-05-11T09:59:44.795Z,24.87
2017-05-11T10:00:44.513Z,24.9
2017-05-11T10:01:44.847Z,24.81
2017-05-11T10:02:44.885Z,24.87
2017-05-11T10:03:44.594Z,24.91
2017-05-11T10:04:44.939Z,24.85
2017-05-11T10:05:44.959Z,24.91
2017-05-11T10:06:44.680Z,24.95
2017-05-11T10:07:45.048Z,24.88
2017-05-11T10:08:45.082Z,24.93
2017-05-11T10:09:44.763Z,24.9
2017-05-11T10:10:45.103Z,25
2017-05-11T10:11:45.136Z,24.99
2017-05-11T10:12:44.851Z,25.03
2017-05-11T10:13:45.192Z,24.95
2017-05-11T10:14:45.225Z,25.02
2017-05-11T10:15:45.256Z,25.03
2017-05-11T10:16:45.282Z,25
2017-05-11T10:17:45.559Z,24.96
2017-05-11T10:18:45.340Z,25.02
2017-05-11T10:19:45.066Z,24.98
2017-05-11T10:20:45.395Z,24.98
2017-05-11T10:21:45.119Z,24.93
2017-05-11T10:22:45.392Z,25.02
2017-05-11T10:23:45.484Z,24.98
2017-05-11T10:24:45.508Z,25.02
2017-05-11T10:25:44.914Z,25.05
2017-05-11T10:26:45.794Z,25
2017-05-11T10:27:45.856Z,25.02
2017-05-11T10:28:45.632Z,25.03
2017-05-11T10:29:45.348Z,25.05
2017-05-11T10:30:45.698Z,25.03
2017-05-11T10:31:45.410Z,25.05
2017-05-11T10:32:45.376Z,25.05
2017-05-11T10:33:45.464Z,25
2017-05-11T10:34:45.503Z,25.03
2017-05-11T10:35:45.522Z,25.05
2017-05-11T10:36:45.550Z,25.06
2017-05-11T10:37:46.100Z,25.03
2017-05-11T10:38:45.932Z,25.03
2017-05-11T10:39:45.949Z,25.05
2017-05-11T10:40:45.980Z,25.02
2017-05-11T10:41:46.006Z,25.06
2017-05-11T10:42:46.287Z,25.02
2017-05-11T10:43:46.068Z,25.08
2017-05-11T10:44:46.100Z,25.08
2017-05-11T10:45:46.126Z,25.02
2017-05-11T10:46:45.842Z,25.09
2017-05-11T10:47:46.383Z,25.08
2017-05-11T10:48:46.211Z,25.06
2017-05-11T10:49:46.245Z,25.06
2017-05-11T10:50:45.957Z,25.1
2017-05-11T10:51:46.302Z,25.13
2017-05-11T10:52:46.273Z,25.1
2017-05-11T10:53:46.359Z,25.13
2017-05-11T10:54:46.076Z,25.09
2017-05-11T10:55:46.108Z,25.15
2017-05-11T10:56:46.441Z,25.14
2017-05-11T10:57:46.665Z,25.13
2017-05-11T10:58:46.504Z,25.17
2017-05-11T10:59:46.532Z,25.13
2017-05-11T11:00:46.562Z,25.13
2017-05-11T11:01:46.851Z,25.05
2017-05-11T11:02:46.817Z,25.03
2017-05-11T11:03:46.647Z,25.17
2017-05-11T11:04:46.675Z,25.08
2017-05-11T11:05:46.717Z,25.13
2017-05-11T11:06:46.421Z,25.13
2017-05-11T11:07:47.021Z,25.13
2017-05-11T11:08:47.022Z,25.1
2017-05-11T11:09:46.519Z,25.09
2017-05-11T11:10:46.544Z,25.15
2017-05-11T11:11:46.878Z,25.13
2017-05-11T11:12:47.118Z,25.06
2017-05-11T11:13:46.630Z,25.14
2017-05-11T11:14:46.655Z,25.18
2017-05-11T11:15:46.999Z,25.13
2017-05-11T11:16:46.721Z,25.15
2017-05-11T11:17:47.262Z,25.15
2017-05-11T11:18:46.777Z,25.13
2017-05-11T11:19:46.806Z,25.2
2017-05-11T11:20:47.169Z,25.25
2017-05-11T11:21:47.204Z,25.28
2017-05-11T11:22:47.460Z,25.21
2017-05-11T11:23:47.235Z,25.23
2017-05-11T11:24:47.262Z,25.28
2017-05-11T11:25:47.290Z,25.36
2017-05-11T11:26:47.326Z,25.33
2017-05-11T11:27:47.549Z,25.35
2017-05-11T11:28:47.068Z,25.4
2017-05-11T11:29:47.407Z,25.4
2017-05-11T11:30:47.437Z,25.45
2017-05-11T11:31:47.464Z,25.42
2017-05-11T11:32:47.744Z,25.47
2017-05-11T11:33:47.520Z,25.5
2017-05-11T11:34:47.559Z,25.51
2017-05-11T11:35:47.583Z,25.6
2017-05-11T11:36:47.611Z,25.62
2017-05-11T11:37:47.844Z,25.69
2017-05-11T11:38:47.675Z,25.8
2017-05-11T11:39:47.704Z,25.8
2017-05-11T11:40:47.631Z,25.92
2017-05-11T11:41:47.989Z,26.02
2017-05-11T11:42:48.246Z,26.07
2017-05-11T11:43:47.811Z,26.23
2017-05-11T11:45:02.428Z,26.28
2017-05-11T11:45:47.570Z,26.44
2017-05-11T11:46:48.145Z,26.6
2017-05-11T11:47:47.942Z,26.67
2017-05-11T11:48:47.970Z,26.77
2017-05-11T11:49:48.039Z,26.94
2017-05-11T11:50:47.720Z,26.91
2017-05-11T11:51:48.536Z,27.02
2017-05-11T11:52:48.085Z,27.06
2017-05-11T11:53:47.812Z,27.13
2017-05-11T11:54:48.154Z,27.19
2017-05-11T11:55:48.202Z,27.17
2017-05-11T11:56:47.904Z,27.27
2017-05-11T11:57:48.249Z,27.27
2017-05-11T11:58:47.997Z,27.27
2017-05-11T11:59:47.694Z,27.25
2017-05-11T12:00:48.340Z,27.12
2017-05-11T12:01:48.371Z,27.17
2017-05-11T12:02:48.400Z,27.28
2017-05-11T12:03:48.425Z,27.18
2017-05-11T12:04:48.458Z,27.12
2017-05-11T12:05:48.178Z,27.06
2017-05-11T12:06:48.212Z,27.06
2017-05-11T12:07:48.553Z,27.07
2017-05-11T12:08:48.582Z,27.02
2017-05-11T12:09:48.614Z,26.99
2017-05-11T12:10:48.651Z,26.99
2017-05-11T12:11:48.356Z,26.92
2017-05-11T12:12:48.705Z,27.03
2017-05-11T12:13:48.750Z,26.92
2017-05-11T12:14:48.761Z,26.88
2017-05-11T12:15:48.793Z,26.84
2017-05-11T12:16:48.838Z,26.87
2017-05-11T12:17:48.855Z,26.84
2017-05-11T12:18:48.892Z,26.84
2017-05-11T12:19:48.917Z,26.81
2017-05-11T12:20:48.950Z,26.82
2017-05-11T12:21:49.206Z,26.82
2017-05-11T12:22:49.008Z,26.8
2017-05-11T12:23:49.073Z,26.77
2017-05-11T12:24:48.765Z,26.69
2017-05-11T12:25:48.794Z,26.66
2017-05-11T12:26:49.141Z,26.76
2017-05-11T12:27:49.171Z,26.7
2017-05-11T12:28:49.201Z,26.72
2017-05-11T12:29:49.224Z,26.66
2017-05-11T12:30:48.947Z,26.6
2017-05-11T12:31:49.288Z,26.67
2017-05-11T12:32:49.320Z,26.54
2017-05-11T12:33:49.357Z,26.57
2017-05-11T12:34:49.065Z,26.52
2017-05-11T12:35:49.406Z,26.43
2017-05-11T12:36:49.444Z,26.4
2017-05-11T12:37:49.474Z,26.44
2017-05-11T12:38:49.187Z,26.33
2017-05-11T12:39:49.215Z,26.36
2017-05-11T12:40:49.241Z,26.3
2017-05-11T12:41:49.313Z,26.21
2017-05-11T12:42:49.619Z,26.2
2017-05-11T12:43:49.344Z,26.12
2017-05-11T12:44:49.365Z,26.18
2017-05-11T12:45:49.709Z,26.09
2017-05-11T12:46:49.750Z,26.1
2017-05-11T12:47:49.770Z,26.02
2017-05-11T12:48:49.815Z,26.1
2017-05-11T12:49:49.823Z,26.07
2017-05-11T12:50:49.861Z,26.05
2017-05-11T12:51:49.886Z,26.07
2017-05-11T12:52:49.610Z,26.05
2017-05-11T12:53:50.155Z,25.99
2017-05-11T12:54:49.979Z,25.97
2017-05-11T12:55:50.016Z,26.07
2017-05-11T12:56:50.040Z,26.09